Time;durP1;ratioP1;P1;durP2;ratioP2;P2;SDS_P1;SDS_P2;PMS_P1;PMS_P2;Temp;Humidity;BMP_temperature;BMP_pressure;BME280_temperature;BME280_humidity;BME280_pressure;Samples;Min_cycle;Max_cycle;Signal;HPM_P1;HPM_P2
2023/12/09 00:02:34;;;;;;;6.55;5.07;;;;;;;2.17;100.00;98327.53;15288630;19;20521;-80
2023/12/09 00:07:59;;;;;;;5.82;4.45;;;;;;;2.21;100.00;98336.13;15282281;19;20368;-80
2023/12/09 00:13:26;;;;;;;5.25;4.68;;;;;;;2.24;100.00;98341.22;15287975;19;20368;-80
2023/12/09 00:18:51;;;;;;;5.75;5.15;;;;;;;2.26;100.00;98334.00;15284147;19;20440;-80
2023/12/09 00:24:15;;;;;;;5.05;4.55;;;;;;;2.26;100.00;98334.84;15285828;19;20010;-79
2023/12/09 00:29:43;;;;;;;4.97;4.43;;;;;;;2.29;100.00;98339.09;15280805;19;20042;-80
2023/12/09 00:35:08;;;;;;;5.60;5.00;;;;;;;2.30;100.00;98352.28;15283947;19;20355;-79
2023/12/09 00:40:33;;;;;;;4.90;4.40;;;;;;;2.33;100.00;98339.72;15276580;19;20039;-80
2023/12/09 00:46:00;;;;;;;5.18;4.60;;;;;;;2.35;100.00;98336.00;15279855;19;20042;-80
2023/12/09 00:51:26;;;;;;;5.72;5.10;;;;;;;2.34;100.00;98339.59;15277268;19;20402;-80
2023/12/09 00:56:50;;;;;;;4.68;4.28;;;;;;;2.34;100.00;98334.28;15277047;19;20014;-79
2023/12/09 01:02:18;;;;;;;5.10;4.60;;;;;;;2.36;100.00;98345.66;15272640;19;20015;-81
2023/12/09 01:07:42;;;;;;;5.05;4.50;;;;;;;2.37;100.00;98352.69;15274586;19;20027;-80
2023/12/09 01:13:07;;;;;;;4.93;4.13;;;;;;;2.38;100.00;98361.50;15296844;19;20034;-79
2023/12/09 01:18:35;;;;;;;5.50;4.40;;;;;;;2.37;100.00;98357.13;15281293;19;20050;-79
2023/12/09 01:23:53;;;;;;;5.72;4.20;;;;;;;2.37;100.00;98365.13;15023346;19;5001720;-79
2023/12/09 01:29:20;;;;;;;5.25;4.20;;;;;;;2.37;100.00;98363.31;15279798;19;20025;-79
2023/12/09 01:34:47;;;;;;;4.68;4.13;;;;;;;2.32;100.00;98360.13;15282622;19;20085;-79
2023/12/09 01:40:13;;;;;;;4.90;4.18;;;;;;;2.29;100.00;98358.56;15289242;19;20010;-80
2023/12/09 01:45:38;;;;;;;6.13;3.83;;;;;;;2.28;100.00;98371.97;15290589;19;20014;-81
2023/12/09 01:51:06;;;;;;;4.63;3.60;;;;;;;2.28;100.00;98370.16;15280272;19;20013;-80
2023/12/09 01:56:39;;;;;;;4.35;3.80;;;;;;;2.25;100.00;98374.84;15280749;19;20010;-82
2023/12/09 02:02:04;;;;;;;4.53;3.95;;;;;;;2.21;100.00;98370.69;15283917;19;20070;-82
2023/12/09 02:07:33;;;;;;;3.92;3.53;;;;;;;2.21;100.00;98376.88;15275800;19;20456;-79
2023/12/09 02:13:04;;;;;;;5.45;3.90;;;;;;;2.20;100.00;98376.97;15285809;19;20015;-81
2023/12/09 02:18:32;;;;;;;5.25;4.07;;;;;;;2.21;100.00;98365.38;15278417;19;20026;-81
2023/12/09 02:24:00;;;;;;;6.00;4.13;;;;;;;2.21;100.00;98383.97;15281564;19;20010;-80
2023/12/09 02:29:27;;;;;;;4.82;3.83;;;;;;;2.22;100.00;98391.88;15286902;19;20010;-83
2023/12/09 02:34:54;;;;;;;5.45;4.00;;;;;;;2.22;100.00;98401.63;15288787;19;20013;-82
2023/12/09 02:40:24;;;;;;;4.90;3.78;;;;;;;2.22;100.00;98404.28;15282693;19;20018;-80
2023/12/09 02:45:48;;;;;;;4.40;3.75;;;;;;;2.21;100.00;98399.94;15287777;19;20017;-82
2023/12/09 02:51:15;;;;;;;5.80;4.20;;;;;;;2.17;100.00;98398.47;15285112;19;20349;-82
2023/12/09 02:56:49;;;;;;;6.20;4.38;;;;;;;2.15;100.00;98396.75;15285150;19;20014;-83
2023/12/09 03:02:14;;;;;;;5.28;3.90;;;;;;;2.13;100.00;98398.66;15287206;19;20029;-79
2023/12/09 03:07:39;;;;;;;5.18;3.92;;;;;;;2.15;100.00;98403.88;15287701;19;20046;-82
2023/12/09 03:13:06;;;;;;;4.80;4.30;;;;;;;2.15;100.00;98404.72;15284846;19;20118;-84
2023/12/09 03:18:31;;;;;;;6.57;4.78;;;;;;;2.17;100.00;98409.09;15285837;19;20017;-80
2023/12/09 03:23:55;;;;;;;6.55;4.47;;;;;;;2.18;100.00;98419.59;15291111;19;20010;-79
2023/12/09 03:29:23;;;;;;;4.78;4.22;;;;;;;2.21;100.00;98421.19;15288143;19;20042;-79
2023/12/09 03:34:47;;;;;;;6.43;4.22;;;;;;;2.21;100.00;98416.75;15290783;19;20086;-79
2023/12/09 03:40:13;;;;;;;5.97;3.92;;;;;;;2.25;100.00;98420.03;15287329;19;20082;-78
2023/12/09 03:45:40;;;;;;;4.55;3.53;;;;;;;2.28;100.00;98417.16;15287720;19;20411;-78
2023/12/09 03:51:05;;;;;;;4.55;3.88;;;;;;;2.28;100.00;98410.03;15288569;19;20059;-78
2023/12/09 03:56:37;;;;;;;4.60;3.75;;;;;;;2.26;100.00;98413.75;15282416;19;20130;-80
2023/12/09 04:02:04;;;;;;;4.20;3.38;;;;;;;2.25;100.00;98407.56;15272397;19;20018;-76
2023/12/09 04:07:29;;;;;;;4.38;3.45;;;;;;;2.27;100.00;98410.97;15270704;19;20018;-76
2023/12/09 04:12:54;;;;;;;8.95;3.83;;;;;;;2.24;100.00;98400.56;15272367;19;20029;-76
2023/12/09 04:18:22;;;;;;;4.97;3.65;;;;;;;2.23;100.00;98390.91;15265798;19;20010;-77
2023/12/09 04:23:47;;;;;;;5.68;3.70;;;;;;;2.21;100.00;98376.88;15274884;19;20014;-76
2023/12/09 04:29:12;;;;;;;6.90;4.20;;;;;;;2.21;100.00;98373.34;15272704;19;20023;-77
2023/12/09 04:34:40;;;;;;;5.40;4.00;;;;;;;2.23;100.00;98368.78;15273201;19;20409;-77
2023/12/09 04:40:08;;;;;;;5.72;3.75;;;;;;;2.26;100.00;98379.19;15269976;19;20355;-76
2023/12/09 04:45:35;;;;;;;5.35;3.58;;;;;;;2.30;100.00;98372.69;15270284;19;20545;-77
2023/12/09 04:51:03;;;;;;;7.80;3.50;;;;;;;2.34;100.00;98368.84;15265208;19;20014;-76
2023/12/09 04:56:28;;;;;;;4.90;3.38;;;;;;;2.37;100.00;98384.59;15271572;19;20086;-78
2023/12/09 05:01:52;;;;;;;5.55;3.38;;;;;;;2.39;100.00;98380.03;15283528;19;20019;-77
2023/12/09 05:07:25;;;;;;;5.57;3.50;;;;;;;2.41;100.00;98375.41;15277354;19;20513;-77
2023/12/09 05:12:50;;;;;;;4.57;3.50;;;;;;;2.43;100.00;98367.34;15274430;19;20376;-76
2023/12/09 05:18:16;;;;;;;5.40;3.33;;;;;;;2.47;100.00;98363.47;15271897;19;20027;-77
2023/12/09 05:23:44;;;;;;;7.93;3.40;;;;;;;2.50;100.00;98359.78;15268454;19;20778;-77
2023/12/09 05:29:09;;;;;;;6.35;3.50;;;;;;;2.49;100.00;98348.28;15273568;19;20050;-77
2023/12/09 05:34:34;;;;;;;3.72;2.92;;;;;;;2.51;100.00;98359.66;15272968;19;20011;-77
2023/12/09 05:40:02;;;;;;;5.20;3.05;;;;;;;2.54;100.00;98359.44;15272420;19;20536;-75
2023/12/09 05:45:26;;;;;;;4.70;2.53;;;;;;;2.58;100.00;98354.75;15275126;19;20521;-76
2023/12/09 05:50:52;;;;;;;4.28;2.70;;;;;;;2.60;100.00;98358.97;15270884;19;20043;-77
2023/12/09 05:56:21;;;;;;;4.60;2.47;;;;;;;2.60;100.00;98363.47;15267360;19;20108;-77
2023/12/09 06:01:46;;;;;;;4.15;2.30;;;;;;;2.64;100.00;98362.28;15293755;19;20035;-78
2023/12/09 06:07:10;;;;;;;3.97;2.42;;;;;;;2.67;100.00;98353.22;15292408;19;20078;-77
2023/12/09 06:12:38;;;;;;;3.83;2.42;;;;;;;2.68;100.00;98352.25;15297154;19;20106;-78
2023/12/09 06:18:03;;;;;;;4.78;2.42;;;;;;;2.63;100.00;98341.97;15288523;19;20024;-77
2023/12/09 06:23:28;;;;;;;4.55;2.60;;;;;;;2.55;100.00;98339.00;15284859;19;20014;-78
2023/12/09 06:28:55;;;;;;;5.55;2.85;;;;;;;2.51;100.00;98353.50;15281769;19;20010;-77
2023/12/09 06:34:20;;;;;;;4.35;2.70;;;;;;;2.50;100.00;98357.13;15285515;19;20015;-77
2023/12/09 06:39:44;;;;;;;4.75;2.78;;;;;;;2.52;100.00;98363.19;15285383;19;20020;-77
2023/12/09 06:45:13;;;;;;;3.03;2.40;;;;;;;2.58;100.00;98376.00;15302310;19;20054;-76
2023/12/09 06:50:37;;;;;;;3.67;2.30;;;;;;;2.64;100.00;98370.25;15286536;19;20021;-77
2023/12/09 06:56:02;;;;;;;3.13;2.50;;;;;;;2.69;100.00;98376.06;15279190;19;20010;-77
2023/12/09 07:01:33;;;;;;;4.80;2.53;;;;;;;2.70;100.00;98363.66;15272399;19;20022;-77
2023/12/09 07:07:02;;;;;;;3.30;2.15;;;;;;;2.71;100.00;98375.94;15281759;19;20030;-77
2023/12/09 07:12:38;;;;;;;2.83;2.20;;;;;;;2.73;100.00;98374.91;15279090;19;20022;-76
2023/12/09 07:18:05;;;;;;;3.25;2.28;;;;;;;2.78;100.00;98371.91;15276837;19;20280;-76
2023/12/09 07:23:33;;;;;;;3.35;2.65;;;;;;;2.81;100.00;98371.69;15279424;19;20053;-76
2023/12/09 07:28:57;;;;;;;4.30;2.60;;;;;;;2.81;100.00;98371.69;15270836;19;20022;-76
2023/12/09 07:34:25;;;;;;;3.28;2.90;;;;;;;2.83;100.00;98368.91;15274763;19;20086;-76
2023/12/09 07:39:50;;;;;;;3.78;2.95;;;;;;;2.86;100.00;98353.53;15274737;19;20391;-76
2023/12/09 07:45:16;;;;;;;3.95;2.55;;;;;;;2.89;100.00;98342.69;15277992;19;20014;-77
2023/12/09 07:50:43;;;;;;;2.67;2.42;;;;;;;2.87;100.00;98343.78;15273414;19;20022;-76
2023/12/09 07:56:16;;;;;;;3.95;2.50;;;;;;;2.91;100.00;98340.75;15279204;19;20047;-76
2023/12/09 08:01:41;;;;;;;3.42;2.55;;;;;;;2.97;100.00;98344.78;15272364;19;20018;-77
2023/12/09 08:07:08;;;;;;;3.67;2.67;;;;;;;3.02;100.00;98349.75;15279282;19;20030;-77
2023/12/09 08:12:33;;;;;;;3.33;2.33;;;;;;;3.07;100.00;98345.78;15275833;19;20007;-77
2023/12/09 08:17:58;;;;;;;2.60;2.10;;;;;;;3.15;100.00;98360.31;15273363;19;20078;-77
2023/12/09 08:23:25;;;;;;;4.25;2.30;;;;;;;3.20;100.00;98358.16;15275056;19;20465;-77
2023/12/09 08:28:50;;;;;;;3.80;2.35;;;;;;;3.24;100.00;98341.84;15270347;19;20104;-77
2023/12/09 08:34:15;;;;;;;3.00;2.28;;;;;;;3.31;100.00;98342.22;15269890;19;20014;-77
2023/12/09 08:39:44;;;;;;;2.88;2.30;;;;;;;3.44;100.00;98343.94;15272807;19;20015;-76
2023/12/09 08:45:12;;;;;;;6.18;2.45;;;;;;;3.52;100.00;98334.41;15246458;19;20018;-76
2023/12/09 08:50:36;;;;;;;3.08;2.00;;;;;;;3.64;100.00;98329.91;15269880;19;20359;-76
2023/12/09 08:56:03;;;;;;;2.67;1.95;;;;;;;3.75;100.00;98338.88;15267656;19;20108;-77
2023/12/09 09:01:28;;;;;;;2.22;1.88;;;;;;;3.78;100.00;98338.66;15269413;19;20018;-77
2023/12/09 09:06:54;;;;;;;2.03;1.83;;;;;;;3.83;100.00;98331.13;15265884;19;20381;-77
2023/12/09 09:12:21;;;;;;;2.97;1.88;;;;;;;3.89;100.00;98330.66;15272339;19;20022;-77
2023/12/09 09:17:46;;;;;;;3.55;2.10;;;;;;;3.93;100.00;98321.47;15272267;19;20357;-77
2023/12/09 09:23:10;;;;;;;2.58;2.08;;;;;;;3.88;100.00;98302.31;15268535;19;20071;-75
2023/12/09 09:28:38;;;;;;;2.22;1.83;;;;;;;3.81;100.00;98296.63;15265308;19;20494;-73
2023/12/09 09:34:04;;;;;;;2.67;1.60;;;;;;;3.83;100.00;98291.16;15261005;19;20394;-73
2023/12/09 09:39:29;;;;;;;2.63;1.90;;;;;;;3.94;100.00;98296.47;15292162;19;20011;-74
2023/12/09 09:45:05;;;;;;;2.60;1.60;;;;;;;4.08;100.00;98297.19;15300980;19;20557;-73
2023/12/09 09:50:30;;;;;;;3.08;1.90;;;;;;;4.21;100.00;98279.25;15297566;19;20010;-74
2023/12/09 09:56:02;;;;;;;1.60;1.50;;;;;;;4.32;100.00;98273.88;15297804;19;20035;-74
2023/12/09 10:01:32;;;;;;;1.70;1.50;;;;;;;4.49;100.00;98269.00;15295258;19;20420;-74
2023/12/09 10:06:57;;;;;;;2.72;2.15;;;;;;;4.70;100.00;98247.69;15297926;19;20667;-74
2023/12/09 10:12:23;;;;;;;1.48;1.30;;;;;;;4.88;100.00;98242.59;15291410;19;20549;-74
2023/12/09 10:17:50;;;;;;;2.50;1.33;;;;;;;5.02;100.00;98229.91;15296523;19;20022;-74
2023/12/09 10:23:22;;;;;;;2.05;1.20;;;;;;;5.12;100.00;98206.78;15293656;19;20469;-76
2023/12/09 10:28:47;;;;;;;1.98;1.25;;;;;;;5.18;100.00;98200.94;15295414;19;20053;-74
2023/12/09 10:34:14;;;;;;;1.75;1.30;;;;;;;5.27;100.00;98193.09;15296700;19;20335;-75
2023/12/09 10:39:39;;;;;;;1.55;1.30;;;;;;;5.36;100.00;98184.25;15293223;19;20013;-73
2023/12/09 10:45:04;;;;;;;1.20;1.10;;;;;;;5.39;100.00;98182.19;15283563;19;20003;-73
2023/12/09 10:50:33;;;;;;;2.10;1.55;;;;;;;5.49;100.00;98158.16;15277481;19;20039;-74
2023/12/09 10:56:05;;;;;;;2.05;1.52;;;;;;;5.55;100.00;98148.75;15277196;19;20491;-74
2023/12/09 11:01:32;;;;;;;1.13;1.00;;;;;;;5.59;100.00;98133.28;15276503;19;20410;-74
2023/12/09 11:07:01;;;;;;;6.20;1.30;;;;;;;5.61;100.00;98134.00;15281758;19;20031;-76
2023/12/09 11:12:29;;;;;;;2.53;2.17;;;;;;;5.69;100.00;98118.16;15283244;19;20016;-76
2023/12/09 11:17:55;;;;;;;1.20;1.10;;;;;;;5.86;100.00;98120.13;15272685;19;20014;-76
2023/12/09 11:23:23;;;;;;;1.30;1.20;;;;;;;6.04;100.00;98103.44;15273884;19;20025;-76
2023/12/09 11:28:47;;;;;;;1.33;1.10;;;;;;;6.13;100.00;98089.22;15258526;19;20014;-76
2023/12/09 11:34:14;;;;;;;2.10;1.30;;;;;;;6.29;100.00;98085.16;15289601;19;20074;-75
2023/12/09 11:39:41;;;;;;;1.58;1.20;;;;;;;6.33;100.00;98067.78;15276817;19;20014;-75
2023/12/09 11:45:07;;;;;;;1.10;1.00;;;;;;;6.25;100.00;98059.66;15282479;19;20006;-75
2023/12/09 11:50:32;;;;;;;1.45;1.00;;;;;;;6.17;100.00;98042.47;15273105;19;20013;-76
2023/12/09 11:56:07;;;;;;;1.23;1.10;;;;;;;6.20;100.00;98016.44;15282103;19;20013;-75
2023/12/09 12:01:32;;;;;;;1.50;1.30;;;;;;;6.29;100.00;97994.19;15277074;19;20028;-76
2023/12/09 12:06:56;;;;;;;1.63;1.25;;;;;;;6.36;100.00;98000.63;15276379;19;20027;-77
2023/12/09 12:12:24;;;;;;;1.85;1.20;;;;;;;6.45;100.00;97991.72;15275105;19;20490;-77
2023/12/09 12:17:49;;;;;;;1.85;1.25;;;;;;;6.45;100.00;97981.03;15274620;19;20419;-76
2023/12/09 12:23:14;;;;;;;3.45;1.75;;;;;;;6.38;100.00;97963.88;15268213;19;20473;-77
2023/12/09 12:28:54;;;;;;;1.83;1.30;;;;;;;6.32;100.00;97956.41;15276222;19;20021;-78
2023/12/09 12:34:20;;;;;;;2.03;1.40;;;;;;;6.34;100.00;97946.41;15275758;19;20020;-76
2023/12/09 12:39:46;;;;;;;2.90;1.50;;;;;;;6.41;100.00;97941.31;15270395;19;20017;-75
2023/12/09 12:45:21;;;;;;;3.08;1.27;;;;;;;6.48;100.00;97927.22;15275313;19;20035;-76
2023/12/09 12:50:47;;;;;;;2.22;1.30;;;;;;;6.72;100.00;97928.50;15273834;19;20082;-76
2023/12/09 12:56:19;;;;;;;3.33;1.42;;;;;;;6.88;100.00;97900.25;15274714;19;20082;-76
2023/12/09 13:01:46;;;;;;;2.67;1.40;;;;;;;6.96;100.00;97875.38;15273973;19;20017;-76
2023/12/09 13:07:18;;;;;;;3.28;1.20;;;;;;;7.22;100.00;97856.72;15273232;19;20608;-77
2023/12/09 13:12:43;;;;;;;2.87;1.40;;;;;;;7.39;100.00;97841.63;15277235;19;20507;-76
2023/12/09 13:18:12;;;;;;;3.97;1.45;;;;;;;7.55;100.00;97806.06;15277005;19;20077;-76
2023/12/09 13:23:40;;;;;;;3.63;1.33;;;;;;;7.69;100.00;97792.09;15272558;19;20086;-76
2023/12/09 13:29:04;;;;;;;3.55;1.50;;;;;;;7.67;100.00;97780.66;15268704;19;20632;-76
2023/12/09 13:34:31;;;;;;;3.53;1.30;;;;;;;7.47;100.00;97755.06;15276518;19;20019;-76
2023/12/09 13:39:57;;;;;;;2.25;1.20;;;;;;;7.18;100.00;97737.47;15271404;19;20066;-75
2023/12/09 13:45:24;;;;;;;2.67;1.20;;;;;;;6.98;100.00;97728.78;15274807;19;20006;-76
2023/12/09 13:50:51;;;;;;;2.70;1.25;;;;;;;6.81;100.00;97711.75;15269562;19;20063;-75
2023/12/09 13:56:16;;;;;;;1.98;1.15;;;;;;;6.62;100.00;97716.28;15270813;19;20015;-76
2023/12/09 14:01:41;;;;;;;2.20;1.10;;;;;;;6.54;100.00;97702.81;15264306;19;20024;-76
2023/12/09 14:07:10;;;;;;;2.80;0.93;;;;;;;6.47;100.00;97697.22;15269695;19;20010;-77
2023/12/09 14:12:36;;;;;;;3.75;1.10;;;;;;;6.36;100.00;97692.97;15272198;19;20032;-76
2023/12/09 14:18:01;;;;;;;2.30;1.00;;;;;;;6.31;100.00;97681.88;15273222;19;20354;-75
2023/12/09 14:23:28;;;;;;;3.88;1.20;;;;;;;6.20;100.00;97676.75;15282985;19;20014;-76
2023/12/09 14:28:54;;;;;;;3.40;1.30;;;;;;;6.12;100.00;97667.66;15281996;19;20018;-76
2023/12/09 14:34:18;;;;;;;2.40;1.30;;;;;;;5.96;100.00;97667.44;15285541;19;20509;-76
2023/12/09 14:39:48;;;;;;;1.83;1.30;;;;;;;5.84;100.00;97650.78;15284073;19;20551;-67
2023/12/09 14:45:13;;;;;;;2.97;1.50;;;;;;;5.75;100.00;97647.16;15276461;19;20049;-65
2023/12/09 14:50:39;;;;;;;2.97;1.42;;;;;;;5.65;100.00;97633.03;15283102;19;20026;-66
2023/12/09 14:56:06;;;;;;;2.30;1.40;;;;;;;5.60;100.00;97628.13;15279949;19;20646;-65
2023/12/09 15:01:32;;;;;;;2.33;1.30;;;;;;;5.55;100.00;97614.38;15277856;19;20014;-68
2023/12/09 15:06:56;;;;;;;3.67;1.73;;;;;;;5.50;100.00;97597.97;15287664;19;20014;-71
2023/12/09 15:12:25;;;;;;;4.15;1.40;;;;;;;5.44;100.00;97580.72;15280738;19;20078;-67
2023/12/09 15:17:50;;;;;;;3.85;1.83;;;;;;;5.36;100.00;97556.56;15278327;19;20038;-66
2023/12/09 15:23:15;;;;;;;3.00;2.33;;;;;;;5.30;100.00;97535.81;15278511;19;20010;-70
2023/12/09 15:28:42;;;;;;;3.65;1.40;;;;;;;5.24;100.00;97526.56;15280165;19;20014;-65
2023/12/09 15:34:08;;;;;;;3.58;2.60;;;;;;;5.13;100.00;97508.91;15279612;19;20031;-68
2023/12/09 15:39:39;;;;;;;5.75;4.00;;;;;;;5.01;100.00;97486.91;15276882;19;20030;-65
2023/12/09 15:45:09;;;;;;;4.10;2.10;;;;;;;4.94;100.00;97472.47;15276360;19;20035;-64
2023/12/09 15:50:35;;;;;;;4.78;2.70;;;;;;;4.87;100.00;97474.06;15282927;19;20014;-67
2023/12/09 15:56:00;;;;;;;4.00;1.95;;;;;;;4.88;100.00;97470.41;15286588;19;20020;-65
2023/12/09 16:01:34;;;;;;;2.72;1.50;;;;;;;4.89;100.00;97480.94;15255772;19;20032;-60
2023/12/09 16:06:59;;;;;;;4.30;2.13;;;;;;;4.85;100.00;97487.56;15272180;19;20015;-60
2023/12/09 16:12:24;;;;;;;2.92;2.20;;;;;;;4.81;100.00;97480.84;15276097;19;20031;-56
2023/12/09 16:17:53;;;;;;;3.38;2.13;;;;;;;4.78;100.00;97457.13;15273246;19;20477;-56
2023/12/09 16:23:19;;;;;;;4.00;2.33;;;;;;;4.71;100.00;97445.38;15271767;19;20075;-59
2023/12/09 16:28:45;;;;;;;3.63;2.20;;;;;;;4.61;100.00;97403.56;15273548;19;20018;-59
2023/12/09 16:34:12;;;;;;;4.18;1.85;;;;;;;4.51;100.00;97385.94;15274937;19;20078;-59
2023/12/09 16:39:37;;;;;;;3.55;2.08;;;;;;;4.40;100.00;97376.31;15269821;19;20014;-58
2023/12/09 16:45:01;;;;;;;4.32;2.00;;;;;;;4.27;100.00;97353.50;15267956;19;20038;-56
2023/12/09 16:50:28;;;;;;;2.75;2.10;;;;;;;4.13;100.00;97335.31;15270498;19;20014;-56
2023/12/09 16:55:53;;;;;;;2.30;2.10;;;;;;;4.02;100.00;97336.34;15272124;19;20019;-57
2023/12/09 17:01:24;;;;;;;4.20;2.10;;;;;;;3.95;100.00;97320.09;15268949;19;20948;-58
2023/12/09 17:06:45;;;;;;;3.08;2.15;;;;;;;3.90;100.00;97318.84;15271509;19;20014;-58
2023/12/09 17:12:11;;;;;;;2.33;1.98;;;;;;;3.85;100.00;97324.63;15265103;19;20493;-57
2023/12/09 17:17:37;;;;;;;3.35;2.22;;;;;;;3.83;100.00;97302.63;15272320;19;20610;-59
2023/12/09 17:23:05;;;;;;;2.65;2.20;;;;;;;3.80;100.00;97266.47;15268427;19;20014;-59
2023/12/09 17:28:31;;;;;;;2.88;2.20;;;;;;;3.81;100.00;97248.66;15269366;19;20038;-60
2023/12/09 17:33:57;;;;;;;3.85;2.20;;;;;;;3.79;100.00;97247.97;15270558;19;20010;-58
2023/12/09 17:39:24;;;;;;;4.15;2.97;;;;;;;3.81;100.00;97252.16;15261482;19;20082;-60
2023/12/09 17:44:50;;;;;;;2.50;2.30;;;;;;;3.83;100.00;97252.00;15262148;19;20021;-60
2023/12/09 17:50:16;;;;;;;4.00;2.80;;;;;;;3.83;100.00;97228.03;15266579;19;20027;-57
2023/12/09 17:55:44;;;;;;;3.53;2.65;;;;;;;3.87;100.00;97223.25;15278116;19;20014;-57
2023/12/09 18:01:15;;;;;;;3.40;2.60;;;;;;;3.87;100.00;97200.09;15278692;19;20022;-56
2023/12/09 18:06:40;;;;;;;3.65;2.50;;;;;;;3.88;100.00;97175.13;15282957;19;20397;-57
2023/12/09 18:12:07;;;;;;;2.60;2.40;;;;;;;3.88;100.00;97163.66;15280125;19;20006;-58
2023/12/09 18:17:32;;;;;;;2.40;2.20;;;;;;;3.84;100.00;97137.31;15278934;19;20506;-56
2023/12/09 18:22:59;;;;;;;2.60;2.35;;;;;;;3.83;100.00;97119.66;15280379;19;20066;-56
2023/12/09 18:28:27;;;;;;;3.10;2.50;;;;;;;3.82;100.00;97095.84;15283014;19;20093;-58
2023/12/09 18:33:53;;;;;;;2.17;2.00;;;;;;;3.83;100.00;97076.16;15282850;19;20032;-57
2023/12/09 18:39:22;;;;;;;2.78;2.38;;;;;;;3.83;100.00;97063.72;15277330;19;20427;-57
2023/12/09 18:44:50;;;;;;;2.78;2.20;;;;;;;3.82;100.00;97062.03;15248782;19;20026;-54
2023/12/09 18:50:15;;;;;;;2.95;2.25;;;;;;;3.82;100.00;97048.72;15268829;19;20416;-57
2023/12/09 18:55:40;;;;;;;2.38;2.17;;;;;;;3.83;100.00;97036.22;15276518;19;20019;-55
2023/12/09 19:01:15;;;;;;;3.30;1.92;;;;;;;3.83;100.00;97025.56;15273167;19;20494;-56
2023/12/09 19:06:40;;;;;;;3.03;2.55;;;;;;;3.83;100.00;97005.09;15268032;19;20018;-56
2023/12/09 19:12:16;;;;;;;2.60;2.40;;;;;;;3.82;100.00;96981.28;15277388;19;20034;-57
2023/12/09 19:17:44;;;;;;;2.63;2.42;;;;;;;3.83;100.00;96977.59;15273913;19;20029;-56
2023/12/09 19:23:09;;;;;;;4.40;2.97;;;;;;;3.83;100.00;96962.47;15268724;19;20014;-57
2023/12/09 19:28:34;;;;;;;3.67;2.70;;;;;;;3.89;100.00;96960.16;15270762;19;20014;-60
2023/12/09 19:34:01;;;;;;;4.10;2.60;;;;;;;3.90;100.00;96960.03;15273094;19;20478;-56
2023/12/09 19:39:27;;;;;;;3.08;2.78;;;;;;;3.95;100.00;96946.25;15272562;19;20023;-57
2023/12/09 19:44:51;;;;;;;3.83;2.90;;;;;;;3.97;100.00;96936.28;15273696;19;20006;-56
2023/12/09 19:50:19;;;;;;;3.00;2.53;;;;;;;3.99;100.00;96916.47;15272410;19;20014;-59
2023/12/09 19:55:45;;;;;;;3.05;2.70;;;;;;;4.01;100.00;96910.97;15269108;19;20031;-58
2023/12/09 20:01:17;;;;;;;2.63;2.42;;;;;;;4.02;100.00;96901.97;15271997;19;20019;-56
2023/12/09 20:06:45;;;;;;;2.60;2.10;;;;;;;4.05;100.00;96900.84;15268016;19;20022;-55
2023/12/09 20:12:14;;;;;;;2.60;2.00;;;;;;;4.08;100.00;96880.03;15277983;19;20552;-53
2023/12/09 20:17:39;;;;;;;2.90;2.10;;;;;;;4.11;100.00;96874.41;15267707;19;20345;-57
2023/12/09 20:23:07;;;;;;;2.72;2.20;;;;;;;4.11;100.00;96877.06;15273750;19;20021;-60
2023/12/09 20:28:33;;;;;;;3.65;2.38;;;;;;;4.12;100.00;96885.88;15266227;19;20047;-56
2023/12/09 20:33:58;;;;;;;3.00;2.30;;;;;;;4.10;100.00;96879.88;15270411;19;20555;-57
2023/12/09 20:39:28;;;;;;;3.45;2.33;;;;;;;4.09;100.00;96875.53;15270319;19;20015;-58
2023/12/09 20:44:53;;;;;;;3.95;2.40;;;;;;;4.06;100.00;96866.03;15270582;19;20014;-57
2023/12/09 20:50:18;;;;;;;4.53;2.25;;;;;;;4.04;100.00;96861.88;15268461;19;20082;-60
2023/12/09 20:55:46;;;;;;;4.45;2.50;;;;;;;4.00;100.00;96848.84;15271335;19;21114;-57
2023/12/09 21:01:19;;;;;;;2.85;2.05;;;;;;;3.98;100.00;96842.03;15261802;19;20031;-52
2023/12/09 21:06:44;;;;;;;2.30;1.70;;;;;;;3.94;100.00;96825.50;15264288;19;20014;-57
2023/12/09 21:12:12;;;;;;;2.10;1.90;;;;;;;3.94;100.00;96833.50;15269724;19;20489;-58
2023/12/09 21:17:37;;;;;;;2.60;2.13;;;;;;;3.94;100.00;96843.31;15270109;19;20119;-59
2023/12/09 21:23:02;;;;;;;3.72;1.73;;;;;;;3.95;100.00;96847.66;15270592;19;20018;-60
2023/12/09 21:28:37;;;;;;;4.30;1.80;;;;;;;3.98;100.00;96853.50;15264321;19;20018;-60
2023/12/09 21:34:02;;;;;;;2.92;1.33;;;;;;;3.98;100.00;96850.00;15269915;19;20042;-58
2023/12/09 21:39:27;;;;;;;1.42;1.33;;;;;;;3.98;100.00;96844.69;15265932;19;20598;-59
2023/12/09 21:44:56;;;;;;;1.38;1.27;;;;;;;3.94;100.00;96840.66;15267223;19;20816;-59
2023/12/09 21:50:22;;;;;;;2.90;1.30;;;;;;;3.92;100.00;96832.84;15266019;19;20035;-59
2023/12/09 21:55:47;;;;;;;1.50;1.00;;;;;;;3.92;100.00;96837.31;15266946;19;20011;-57
2023/12/09 22:01:14;;;;;;;2.63;1.10;;;;;;;3.90;100.00;96832.16;15260608;19;20070;-59
2023/12/09 22:06:39;;;;;;;1.70;1.13;;;;;;;3.91;100.00;96830.31;15262411;19;20054;-59
2023/12/09 22:12:05;;;;;;;2.15;1.73;;;;;;;3.87;100.00;96824.47;15265948;19;20475;-58
2023/12/09 22:17:33;;;;;;;1.58;0.88;;;;;;;3.85;100.00;96829.13;15262905;19;20022;-57
2023/12/09 22:22:58;;;;;;;1.08;0.90;;;;;;;3.80;100.00;96834.09;15264103;19;20313;-59
2023/12/09 22:28:25;;;;;;;1.33;1.00;;;;;;;3.74;100.00;96826.72;15259956;19;20026;-58
2023/12/09 22:33:52;;;;;;;0.75;0.60;;;;;;;3.64;100.00;96825.00;15261450;19;20476;-59
2023/12/09 22:39:17;;;;;;;0.65;0.52;;;;;;;3.61;100.00;96824.50;15263748;19;20014;-59
2023/12/09 22:44:41;;;;;;;2.08;0.60;;;;;;;3.54;100.00;96816.28;15280636;19;20102;-58
2023/12/09 22:50:10;;;;;;;0.95;0.70;;;;;;;3.51;100.00;96828.09;15277112;19;20026;-60
2023/12/09 22:55:35;;;;;;;0.60;0.60;;;;;;;3.48;100.00;96827.56;15280664;19;20476;-58
2023/12/09 23:01:00;;;;;;;0.63;0.60;;;;;;;3.43;100.00;96821.88;15275778;19;20045;-59
2023/12/09 23:06:30;;;;;;;2.53;0.90;;;;;;;3.44;100.00;96828.88;15272771;19;20018;-60
2023/12/09 23:11:56;;;;;;;0.47;0.47;;;;;;;3.43;100.00;96836.00;15282930;19;20015;-58
2023/12/09 23:17:20;;;;;;;0.70;0.68;;;;;;;3.43;100.00;96849.31;15279955;19;20018;-59
2023/12/09 23:22:49;;;;;;;0.60;0.60;;;;;;;3.41;100.00;96839.81;15273954;19;20097;-59
2023/12/09 23:33:38;;;;;;;0.60;0.60;;;;;;;3.35;100.00;96833.28;15302207;19;20010;-86
2023/12/09 23:39:08;;;;;;;0.60;0.60;;;;;;;3.36;100.00;96835.78;15303736;19;20018;-86
2023/12/09 23:44:35;;;;;;;0.60;0.60;;;;;;;3.36;100.00;96846.44;15301996;19;20017;-87
2023/12/09 23:50:13;;;;;;;1.17;0.73;;;;;;;3.38;100.00;96851.63;15301766;19;20057;-86
2023/12/09 23:55:44;;;;;;;0.50;0.50;;;;;;;3.38;100.00;96857.78;15301565;19;20032;-86
